createdAt,value
2022-09-17T00:01:24.910Z,1.80
2022-09-17T00:03:55.551Z,1.70
2022-09-17T00:06:24.851Z,2.13
2022-09-17T00:08:53.679Z,1.60
2022-09-17T00:11:33.924Z,1.77
2022-09-17T00:14:03.053Z,1.52
2022-09-17T00:16:40.033Z,1.38
2022-09-17T00:19:12.421Z,1.35
2022-09-17T00:21:40.812Z,1.10
2022-09-17T00:24:07.815Z,1.25
2022-09-17T00:26:35.164Z,1.17
2022-09-17T00:29:01.957Z,1.48
2022-09-17T00:31:30.495Z,1.67
2022-09-17T00:33:59.771Z,1.35
2022-09-17T00:36:27.308Z,1.45
2022-09-17T00:38:59.259Z,1.90
2022-09-17T00:41:31.641Z,1.67
2022-09-17T00:44:02.763Z,1.73
2022-09-17T00:46:42.862Z,2.00
2022-09-17T00:49:25.203Z,2.03
2022-09-17T00:52:08.260Z,1.50
2022-09-17T00:54:40.944Z,2.20
2022-09-17T00:57:08.484Z,1.40
2022-09-17T00:59:35.919Z,1.48
2022-09-17T01:02:03.944Z,1.60
2022-09-17T01:04:30.760Z,1.92
2022-09-17T01:07:15.115Z,1.73
2022-09-17T01:09:56.116Z,1.33
2022-09-17T01:12:45.517Z,1.55
2022-09-17T01:15:35.253Z,1.40
2022-09-17T01:18:34.295Z,1.80
2022-09-17T01:21:31.605Z,1.60
2022-09-17T01:24:45.888Z,1.05
2022-09-17T01:27:35.059Z,1.65
2022-09-17T01:30:23.572Z,1.50
2022-09-17T01:33:18.014Z,1.48
2022-09-17T01:36:07.868Z,1.55
2022-09-17T01:38:59.232Z,1.45
2022-09-17T01:42:09.727Z,1.00
2022-09-17T01:44:49.214Z,1.08
2022-09-17T01:47:26.396Z,1.20
2022-09-17T01:50:00.361Z,1.05
2022-09-17T01:52:31.092Z,1.50
2022-09-17T01:55:05.582Z,1.10
2022-09-17T01:57:41.140Z,2.53
2022-09-17T02:00:15.654Z,2.50
2022-09-17T02:02:51.244Z,3.70
2022-09-17T02:05:38.528Z,2.35
2022-09-17T02:08:20.769Z,1.33
2022-09-17T02:11:04.567Z,1.58
2022-09-17T02:14:05.780Z,1.80
2022-09-17T02:16:37.224Z,1.70
2022-09-17T02:19:19.380Z,1.08
2022-09-17T02:22:12.148Z,1.52
2022-09-17T02:25:00.576Z,1.38
2022-09-17T02:27:52.331Z,1.17
2022-09-17T02:30:19.315Z,1.45
2022-09-17T02:32:46.519Z,1.30
2022-09-17T02:35:15.083Z,1.15
2022-09-17T02:37:44.229Z,1.27
2022-09-17T02:40:18.091Z,1.70
2022-09-17T02:43:23.148Z,1.15
2022-09-17T02:45:58.423Z,1.48
2022-09-17T02:48:48.152Z,1.70
2022-09-17T02:51:45.584Z,1.70
2022-09-17T02:54:42.155Z,1.42
2022-09-17T02:57:33.232Z,1.83
2022-09-17T03:00:17.766Z,2.20
2022-09-17T03:02:58.593Z,1.52
2022-09-17T03:05:27.881Z,1.92
2022-09-17T03:08:00.072Z,1.60
2022-09-17T03:10:33.384Z,1.73
2022-09-17T03:13:00.561Z,1.60
2022-09-17T03:15:28.272Z,1.13
2022-09-17T03:17:55.127Z,1.65
2022-09-17T03:20:22.160Z,1.60
2022-09-17T03:22:48.910Z,1.77
2022-09-17T03:25:15.850Z,1.00
2022-09-17T03:27:42.558Z,1.67
2022-09-17T03:30:09.756Z,1.77
2022-09-17T03:32:36.516Z,1.70
2022-09-17T03:35:03.371Z,1.20
2022-09-17T03:37:33.058Z,1.20
2022-09-17T03:40:00.334Z,1.20
2022-09-17T03:42:27.327Z,1.25
2022-09-17T03:44:54.069Z,1.48
2022-09-17T03:47:20.823Z,1.30
2022-09-17T03:49:47.578Z,1.15
2022-09-17T03:52:14.423Z,1.20
2022-09-17T03:54:41.149Z,1.50
2022-09-17T03:57:07.871Z,1.40
2022-09-17T03:59:34.589Z,1.50
2022-09-17T04:02:01.362Z,1.55
2022-09-17T04:04:28.169Z,1.38
2022-09-17T04:06:54.928Z,1.42
2022-09-17T04:09:21.825Z,1.13
2022-09-17T04:11:48.523Z,0.98
2022-09-17T04:14:15.287Z,1.05
2022-09-17T04:16:42.011Z,1.30
2022-09-17T04:19:08.761Z,0.90
2022-09-17T04:21:35.463Z,0.90
2022-09-17T04:24:02.456Z,1.05
2022-09-17T04:26:29.240Z,0.95
2022-09-17T04:28:56.247Z,1.15
2022-09-17T04:31:24.840Z,1.27
2022-09-17T04:33:51.631Z,1.45
2022-09-17T04:36:18.395Z,1.02
2022-09-17T04:38:48.855Z,1.05
2022-09-17T04:41:15.879Z,1.35
2022-09-17T04:43:42.648Z,0.82
2022-09-17T04:46:09.390Z,0.75
2022-09-17T04:48:36.156Z,0.98
2022-09-17T04:51:02.980Z,0.73
2022-09-17T04:53:29.685Z,1.02
2022-09-17T04:55:56.395Z,0.70
2022-09-17T04:58:23.268Z,0.63
2022-09-17T05:00:50.047Z,0.68
2022-09-17T05:03:16.945Z,0.70
2022-09-17T05:05:43.660Z,0.85
2022-09-17T05:08:10.451Z,1.15
2022-09-17T05:10:37.343Z,0.70
2022-09-17T05:13:04.127Z,0.70
2022-09-17T05:15:31.046Z,0.90
2022-09-17T05:17:57.834Z,0.73
2022-09-17T05:20:24.825Z,0.60
2022-09-17T05:22:52.905Z,1.10
2022-09-17T05:25:24.459Z,0.85
2022-09-17T05:27:53.460Z,1.13
2022-09-17T05:30:20.886Z,0.80
2022-09-17T05:32:48.583Z,0.98
2022-09-17T05:35:15.776Z,1.30
2022-09-17T05:37:42.536Z,1.60
2022-09-17T05:40:10.277Z,0.90
2022-09-17T05:42:37.395Z,0.88
2022-09-17T05:45:05.435Z,1.00
2022-09-17T05:47:32.255Z,0.80
2022-09-17T05:49:59.016Z,0.80
2022-09-17T05:52:29.682Z,1.30
2022-09-17T05:54:56.895Z,0.70
2022-09-17T05:57:24.642Z,0.55
2022-09-17T05:59:51.766Z,0.90
2022-09-17T06:02:18.724Z,1.00
2022-09-17T06:04:46.350Z,1.10
2022-09-17T06:07:13.546Z,0.70
2022-09-17T06:09:40.991Z,0.60
2022-09-17T06:12:08.430Z,0.80
2022-09-17T06:14:35.157Z,0.73
2022-09-17T06:17:01.892Z,1.00
2022-09-17T06:19:28.704Z,0.93
2022-09-17T06:21:55.701Z,0.82
2022-09-17T06:24:22.600Z,0.77
2022-09-17T06:26:49.500Z,0.50
2022-09-17T06:29:16.355Z,1.25
2022-09-17T06:31:44.673Z,0.75
2022-09-17T06:34:12.273Z,0.80
2022-09-17T06:36:39.468Z,0.80
2022-09-17T06:39:06.732Z,0.75
2022-09-17T06:41:33.860Z,0.82
2022-09-17T06:44:04.949Z,0.70
2022-09-17T06:46:31.853Z,0.80
2022-09-17T06:48:58.908Z,0.60
2022-09-17T06:51:25.672Z,0.77
2022-09-17T06:53:52.383Z,0.88
2022-09-17T06:56:19.637Z,1.00
2022-09-17T06:58:46.847Z,1.15
2022-09-17T07:01:14.627Z,1.00
2022-09-17T07:03:43.397Z,0.80
2022-09-17T07:06:11.198Z,1.08
2022-09-17T07:08:39.456Z,1.10
2022-09-17T07:11:06.644Z,1.00
2022-09-17T07:13:34.070Z,1.02
2022-09-17T07:16:03.361Z,0.80
2022-09-17T07:18:30.523Z,1.27
2022-09-17T07:21:03.558Z,0.63
2022-09-17T07:23:34.507Z,0.70
2022-09-17T07:26:08.786Z,0.80
2022-09-17T07:28:39.020Z,0.73
2022-09-17T07:31:07.421Z,0.80
2022-09-17T07:33:37.512Z,0.90
2022-09-17T07:36:12.094Z,1.45
2022-09-17T07:38:39.555Z,0.90
2022-09-17T07:41:15.498Z,0.90
2022-09-17T07:43:43.892Z,1.25
2022-09-17T07:46:19.329Z,0.82
2022-09-17T07:48:48.017Z,1.15
2022-09-17T07:51:28.361Z,0.95
2022-09-17T07:53:58.389Z,1.05
2022-09-17T07:56:27.281Z,0.90
2022-09-17T07:58:54.532Z,0.75
2022-09-17T08:01:22.535Z,0.90
2022-09-17T08:03:54.193Z,1.10
2022-09-17T08:06:27.972Z,0.80
2022-09-17T08:08:59.992Z,0.80
2022-09-17T08:11:54.582Z,0.85
2022-09-17T08:14:16.545Z,0.90
2022-09-17T08:16:45.492Z,0.80
2022-09-17T08:19:12.200Z,1.10
2022-09-17T08:21:39.007Z,0.80
2022-09-17T08:24:06.063Z,0.90
2022-09-17T08:26:32.776Z,0.98
2022-09-17T08:29:00.023Z,1.38
2022-09-17T08:31:30.005Z,1.20
2022-09-17T08:33:57.138Z,1.48
2022-09-17T08:36:26.016Z,0.80
2022-09-17T08:38:54.344Z,0.60
2022-09-17T08:41:28.291Z,0.52
2022-09-17T08:44:24.452Z,0.50
2022-09-17T08:47:00.372Z,0.82
2022-09-17T08:49:45.343Z,0.60
2022-09-17T08:52:22.153Z,0.70
2022-09-17T08:55:13.201Z,0.65
2022-09-17T08:58:33.852Z,0.65
2022-09-17T09:01:34.650Z,0.40
2022-09-17T09:05:02.414Z,0.45
2022-09-17T09:07:43.370Z,1.15
2022-09-17T09:10:26.607Z,0.50
2022-09-17T09:12:59.019Z,0.80
2022-09-17T09:15:45.301Z,0.80
2022-09-17T09:18:26.024Z,0.80
2022-09-17T09:21:00.688Z,0.80
2022-09-17T09:23:36.081Z,0.88
2022-09-17T09:26:19.402Z,0.50
2022-09-17T09:29:01.874Z,0.70
2022-09-17T09:31:58.511Z,0.60
2022-09-17T09:34:29.502Z,0.70
2022-09-17T09:37:25.809Z,0.60
2022-09-17T09:39:56.283Z,0.68
2022-09-17T09:42:35.651Z,0.90
2022-09-17T09:45:52.792Z,0.60
2022-09-17T09:49:15.519Z,0.85
2022-09-17T09:52:19.043Z,0.70
2022-09-17T09:55:17.966Z,0.70
2022-09-17T09:57:49.584Z,1.23
2022-09-17T10:00:43.459Z,0.80
2022-09-17T10:03:38.965Z,0.65
2022-09-17T10:06:09.970Z,1.20
2022-09-17T10:09:02.156Z,0.50
2022-09-17T10:11:33.164Z,0.60
2022-09-17T10:14:23.706Z,0.50
2022-09-17T10:17:17.651Z,0.65
2022-09-17T10:19:46.412Z,0.60
2022-09-17T10:22:27.091Z,0.80
2022-09-17T10:24:57.328Z,0.70
2022-09-17T10:27:26.170Z,0.60
2022-09-17T10:30:03.623Z,0.70
2022-09-17T10:32:30.909Z,0.80
2022-09-17T10:35:28.012Z,0.80
2022-09-17T10:37:55.191Z,0.70
2022-09-17T10:40:28.362Z,0.95
2022-09-17T10:43:16.299Z,0.90
2022-09-17T10:45:56.145Z,1.35
2022-09-17T10:48:23.326Z,1.00
2022-09-17T10:50:56.455Z,0.93
2022-09-17T10:53:26.742Z,1.45
2022-09-17T10:56:21.745Z,1.23
2022-09-17T10:59:34.612Z,1.20
2022-09-17T11:02:31.824Z,1.10
2022-09-17T11:05:53.768Z,0.90
2022-09-17T11:08:55.973Z,0.95
2022-09-17T11:11:40.681Z,1.10
2022-09-17T11:14:37.960Z,1.27
2022-09-17T11:17:26.164Z,1.30
2022-09-17T11:20:32.462Z,1.98
2022-09-17T11:23:46.531Z,1.40
2022-09-17T11:26:45.729Z,1.20
2022-09-17T11:29:48.943Z,1.80
2022-09-17T11:32:49.338Z,1.60
2022-09-17T11:35:47.144Z,1.42
2022-09-17T11:38:30.601Z,1.48
2022-09-17T11:41:12.649Z,1.00
2022-09-17T11:44:06.873Z,1.10
2022-09-17T11:46:45.568Z,0.90
2022-09-17T11:49:34.092Z,1.08
2022-09-17T11:52:22.246Z,0.85
2022-09-17T11:55:05.818Z,0.80
2022-09-17T11:57:40.052Z,1.00
2022-09-17T12:00:17.835Z,0.98
2022-09-17T12:03:13.937Z,0.88
2022-09-17T12:05:56.920Z,1.65
2022-09-17T12:08:57.589Z,0.93
2022-09-17T12:11:40.397Z,1.08
2022-09-17T12:14:44.583Z,1.67
2022-09-17T12:17:24.239Z,1.17
2022-09-17T12:20:01.475Z,1.10
2022-09-17T12:22:40.093Z,1.50
2022-09-17T12:25:13.119Z,1.55
2022-09-17T12:27:56.775Z,1.30
2022-09-17T12:30:32.343Z,1.40
2022-09-17T12:33:11.936Z,1.13
2022-09-17T12:36:26.218Z,1.20
2022-09-17T12:39:21.252Z,1.55
2022-09-17T12:42:31.220Z,1.25
2022-09-17T12:45:21.631Z,1.02
2022-09-17T12:48:40.935Z,1.13
2022-09-17T12:51:29.352Z,1.50
2022-09-17T12:54:32.523Z,1.30
2022-09-17T12:57:21.259Z,1.02
2022-09-17T13:00:16.095Z,1.10
2022-09-17T13:02:55.343Z,1.25
2022-09-17T13:05:49.523Z,1.20
2022-09-17T13:08:56.863Z,0.98
2022-09-17T13:11:54.942Z,2.63
2022-09-17T13:14:51.887Z,1.35
2022-09-17T13:18:20.053Z,1.40
2022-09-17T13:21:24.106Z,1.52
2022-09-17T13:23:53.605Z,1.10
2022-09-17T13:26:32.998Z,1.20
2022-09-17T13:28:59.764Z,1.17
2022-09-17T13:31:35.773Z,0.95
2022-09-17T13:34:03.421Z,1.10
2022-09-17T13:36:51.946Z,1.20
2022-09-17T13:39:50.747Z,1.23
2022-09-17T13:42:29.206Z,0.98
2022-09-17T13:45:13.210Z,1.10
2022-09-17T13:47:58.556Z,1.65
2022-09-17T13:50:33.313Z,1.20
2022-09-17T13:53:12.373Z,0.90
2022-09-17T13:55:43.262Z,1.42
2022-09-17T13:58:23.052Z,1.05
2022-09-17T14:01:00.137Z,1.15
2022-09-17T14:03:30.909Z,1.30
2022-09-17T14:06:18.768Z,1.20
2022-09-17T14:08:45.582Z,1.25
2022-09-17T14:11:39.348Z,1.08
2022-09-17T14:14:06.420Z,1.58
2022-09-17T14:16:50.358Z,1.40
2022-09-17T14:19:25.823Z,1.10
2022-09-17T14:21:57.297Z,1.35
2022-09-17T14:24:32.360Z,1.23
2022-09-17T14:27:32.896Z,1.42
2022-09-17T14:30:29.915Z,1.20
2022-09-17T14:33:19.236Z,2.10
2022-09-17T14:36:10.518Z,1.23
2022-09-17T14:38:38.424Z,1.40
2022-09-17T14:41:20.255Z,1.67
2022-09-17T14:44:12.870Z,1.45
2022-09-17T14:46:52.071Z,1.80
2022-09-17T14:49:31.880Z,1.58
2022-09-17T14:51:59.949Z,1.38
2022-09-17T14:54:36.002Z,1.70
2022-09-17T14:57:09.252Z,1.60
2022-09-17T14:59:53.379Z,1.77
2022-09-17T15:02:33.511Z,1.38
2022-09-17T15:05:01.924Z,1.38
2022-09-17T15:07:28.709Z,1.33
2022-09-17T15:10:14.791Z,1.23
2022-09-17T15:12:44.981Z,1.27
2022-09-17T15:15:26.198Z,1.33
2022-09-17T15:17:54.536Z,1.95
2022-09-17T15:20:31.331Z,1.20
2022-09-17T15:23:17.850Z,1.40
2022-09-17T15:25:49.842Z,2.00
2022-09-17T15:28:40.300Z,1.67
2022-09-17T15:31:19.617Z,1.23
2022-09-17T15:33:47.654Z,1.38
2022-09-17T15:36:27.617Z,1.30
2022-09-17T15:38:54.818Z,1.80
2022-09-17T15:41:39.560Z,1.38
2022-09-17T15:44:30.912Z,1.40
2022-09-17T15:47:55.919Z,1.75
2022-09-17T15:50:28.504Z,1.27
2022-09-17T15:53:05.341Z,1.20
2022-09-17T15:55:41.396Z,1.58
2022-09-17T15:58:32.952Z,1.38
2022-09-17T16:01:18.123Z,1.63
2022-09-17T16:03:44.965Z,1.13
2022-09-17T16:06:17.869Z,1.33
2022-09-17T16:08:51.291Z,1.10
2022-09-17T16:11:21.628Z,1.00
2022-09-17T16:13:55.324Z,1.15
2022-09-17T16:16:40.276Z,1.08
2022-09-17T16:19:07.303Z,1.00
2022-09-17T16:21:34.025Z,1.10
2022-09-17T16:24:00.964Z,0.90
2022-09-17T16:26:34.253Z,1.00
2022-09-17T16:29:12.032Z,1.00
2022-09-17T16:31:38.906Z,1.20
2022-09-17T16:34:05.694Z,1.40
2022-09-17T16:36:32.529Z,1.20
2022-09-17T16:38:59.870Z,1.10
2022-09-17T16:41:26.877Z,1.10
2022-09-17T16:43:53.672Z,0.90
2022-09-17T16:46:20.448Z,1.17
2022-09-17T16:48:51.124Z,0.90
2022-09-17T16:51:18.011Z,1.20
2022-09-17T16:53:44.959Z,0.93
2022-09-17T16:56:15.262Z,0.82
2022-09-17T16:58:42.316Z,0.55
2022-09-17T17:01:15.420Z,0.43
2022-09-17T17:03:42.989Z,0.45
2022-09-17T17:06:20.972Z,0.88
2022-09-17T17:08:48.719Z,0.82
2022-09-17T17:11:15.784Z,0.95
2022-09-17T17:13:43.505Z,0.60
2022-09-17T17:16:13.300Z,0.85
2022-09-17T17:18:43.983Z,0.65
2022-09-17T17:21:14.211Z,0.30
2022-09-17T17:23:43.405Z,0.50
2022-09-17T17:26:10.194Z,0.80
2022-09-17T17:28:37.732Z,0.70
2022-09-17T17:31:05.791Z,0.80
2022-09-17T17:33:33.328Z,0.65
2022-09-17T17:36:07.534Z,0.52
2022-09-17T17:38:35.924Z,0.65
2022-09-17T17:41:12.003Z,0.80
2022-09-17T17:43:39.920Z,0.70
2022-09-17T17:46:10.123Z,0.70
2022-09-17T17:48:37.807Z,0.88
2022-09-17T17:51:07.618Z,1.05
2022-09-17T17:53:34.928Z,0.60
2022-09-17T17:56:06.656Z,0.70
2022-09-17T17:58:35.059Z,0.60
2022-09-17T18:01:15.771Z,0.60
2022-09-17T18:03:43.336Z,0.60
2022-09-17T18:06:10.561Z,0.50
2022-09-17T18:08:40.168Z,0.95
2022-09-17T18:11:09.181Z,0.75
2022-09-17T18:13:38.115Z,0.80
2022-09-17T18:16:08.566Z,0.73
2022-09-17T18:18:44.916Z,0.60
2022-09-17T18:21:16.851Z,1.33
2022-09-17T18:23:45.174Z,0.57
2022-09-17T18:26:16.634Z,0.82
2022-09-17T18:28:44.449Z,0.60
2022-09-17T18:31:25.714Z,0.85
2022-09-17T18:34:02.212Z,0.90
2022-09-17T18:36:32.658Z,1.00
2022-09-17T18:39:57.049Z,0.95
2022-09-17T18:41:49.241Z,0.75
2022-09-17T18:44:18.548Z,1.10
2022-09-17T18:46:47.796Z,0.90
2022-09-17T18:49:15.634Z,1.30
2022-09-17T18:51:42.592Z,1.50
2022-09-17T18:54:12.524Z,1.17
2022-09-17T18:56:41.387Z,1.13
2022-09-17T18:59:08.663Z,1.00
2022-09-17T19:01:36.170Z,0.85
2022-09-17T19:04:04.314Z,1.10
2022-09-17T19:06:32.116Z,1.00
2022-09-17T19:09:04.704Z,1.50
2022-09-17T19:11:31.801Z,1.10
2022-09-17T19:13:58.643Z,0.88
2022-09-17T19:16:25.924Z,1.13
2022-09-17T19:18:52.842Z,1.10
2022-09-17T19:21:21.468Z,1.00
2022-09-17T19:23:51.827Z,1.05
2022-09-17T19:26:22.672Z,0.90
2022-09-17T19:28:55.388Z,1.13
2022-09-17T19:31:22.354Z,0.90
2022-09-17T19:33:50.659Z,1.40
2022-09-17T19:36:19.189Z,1.42
2022-09-17T19:38:47.594Z,1.58
2022-09-17T19:41:20.941Z,1.40
2022-09-17T19:43:51.439Z,1.30
2022-09-17T19:46:22.263Z,1.42
2022-09-17T19:48:53.477Z,1.20
2022-09-17T19:51:22.843Z,1.48
2022-09-17T19:53:50.369Z,1.30
2022-09-17T19:56:21.716Z,1.33
2022-09-17T19:58:48.906Z,1.33
2022-09-17T20:01:16.934Z,1.27
2022-09-17T20:03:45.599Z,1.42
2022-09-17T20:06:16.940Z,1.30
2022-09-17T20:08:49.091Z,1.50
2022-09-17T20:11:17.914Z,1.52
2022-09-17T20:13:44.763Z,1.00
2022-09-17T20:16:16.960Z,1.20
2022-09-17T20:18:44.226Z,1.50
2022-09-17T20:21:13.075Z,1.38
2022-09-17T20:23:40.264Z,1.48
2022-09-17T20:26:07.340Z,1.02
2022-09-17T20:28:34.771Z,1.20
2022-09-17T20:31:08.567Z,1.45
2022-09-17T20:33:35.387Z,1.20
2022-09-17T20:36:06.378Z,1.30
2022-09-17T20:41:21.588Z,1.75
2022-09-17T20:43:51.962Z,1.30
2022-09-17T20:46:27.668Z,1.25
2022-09-17T20:48:57.325Z,1.98
2022-09-17T20:51:27.863Z,1.02
2022-09-17T20:53:56.927Z,1.13
2022-09-17T20:56:28.714Z,1.40
2022-09-17T20:59:08.164Z,1.50
2022-09-17T21:01:37.302Z,1.30
2022-09-17T21:04:07.559Z,1.30
2022-09-17T21:06:41.542Z,1.70
2022-09-17T21:09:11.956Z,1.42
2022-09-17T21:11:39.072Z,1.90
2022-09-17T21:14:06.165Z,1.55
2022-09-17T21:16:32.934Z,2.42
2022-09-17T21:19:05.243Z,1.95
2022-09-17T21:21:35.271Z,1.80
2022-09-17T21:24:05.642Z,1.95
2022-09-17T21:26:34.369Z,1.70
2022-09-17T21:29:01.655Z,1.50
2022-09-17T21:31:35.728Z,2.00
2022-09-17T21:34:07.944Z,1.45
2022-09-17T21:36:37.603Z,1.73
2022-09-17T21:39:17.460Z,1.67
2022-09-17T21:41:45.824Z,1.27
2022-09-17T21:44:13.553Z,1.50
2022-09-17T21:46:42.350Z,1.45
2022-09-17T21:49:10.139Z,1.45
2022-09-17T21:51:42.678Z,2.40
2022-09-17T21:54:13.270Z,1.70
2022-09-17T21:56:40.209Z,1.33
2022-09-17T21:59:10.939Z,1.10
2022-09-17T22:01:45.869Z,1.35
2022-09-17T22:04:19.243Z,1.10
2022-09-17T22:06:48.710Z,1.80
2022-09-17T22:09:23.723Z,1.65
2022-09-17T22:11:51.568Z,1.23
2022-09-17T22:14:21.882Z,1.20
2022-09-17T22:16:57.137Z,1.13
2022-09-17T22:19:25.417Z,1.35
2022-09-17T22:21:54.771Z,1.30
2022-09-17T22:24:25.499Z,1.35
2022-09-17T22:26:57.835Z,1.33
2022-09-17T22:29:27.691Z,1.50
2022-09-17T22:31:54.654Z,1.10
2022-09-17T22:34:23.260Z,1.40
2022-09-17T22:36:50.438Z,1.38
2022-09-17T22:39:19.824Z,1.23
2022-09-17T22:41:47.322Z,1.20
2022-09-17T22:44:17.979Z,1.20
2022-09-17T22:46:49.176Z,1.25
2022-09-17T22:49:16.539Z,1.42
2022-09-17T22:51:44.906Z,1.73
2022-09-17T22:54:14.423Z,1.35
2022-09-17T22:56:42.282Z,1.70
2022-09-17T22:59:09.162Z,1.27
2022-09-17T23:01:37.181Z,1.40
2022-09-17T23:04:05.260Z,1.17
2022-09-17T23:06:37.845Z,0.93
2022-09-17T23:09:06.189Z,1.63
2022-09-17T23:11:36.500Z,1.85
2022-09-17T23:14:08.650Z,1.27
2022-09-17T23:16:45.492Z,1.50
2022-09-17T23:19:14.155Z,1.63
2022-09-17T23:21:41.291Z,2.42
2022-09-17T23:24:16.348Z,1.65
2022-09-17T23:26:43.068Z,1.75
2022-09-17T23:29:09.784Z,1.20
2022-09-17T23:31:36.820Z,1.10
2022-09-17T23:34:05.557Z,1.70
2022-09-17T23:36:36.500Z,1.10
2022-09-17T23:39:04.985Z,1.38
2022-09-17T23:41:38.205Z,1.30
2022-09-17T23:44:14.522Z,1.33
2022-09-17T23:46:44.082Z,1.13
2022-09-17T23:49:13.016Z,1.20
2022-09-17T23:51:39.877Z,1.63
2022-09-17T23:54:07.150Z,1.63
2022-09-17T23:56:34.873Z,1.00
2022-09-17T23:59:02.442Z,0.90
